Campanya meteocatpedra

Dades de l'estació automàtica Tornabous

?
?
Resum diari 20:00 TU
Dades diàries de l'estació meteorològica
Temperatura mitjana 11.0 °C
Temperatura màxima 18.0 °C 14:27 TU
Temperatura mínima 4.4 °C 4:54 TU
Humitat relativa mitjana 84%
Precipitació acumulada 0.1 mm
Ratxa màxima del vent (2 m) 14.8 km/h - 267º 13:25 TU

El tram horari està expressat en Temps Universal (TU). Cal sumar una hora en horari d'hivern i dues en horari d'estiu per passar a l'hora oficial.

Tornabous

Metadades estació meteorol´gica
Municipi Tornabous
Comarca Urgell
Altitud 291 m
Data alta 06.08.2013
Estat actual Operativa
Dades de període
Període
TU
TM
°C
TX
°C
TN
°C
HRM
%
PPT
mm
VVM (2 m)
km/h
DVM (2 m)
graus
VVX (2 m)
km/h
00:00 - 00:30 8.2 8.7 7.4 97 0.0 0.4 85 2.2
00:30 - 01:00 7.3 7.6 7.0 98 0.0 0.4 56 2.9
01:00 - 01:30 6.9 7.2 6.5 98 0.0 0.0 87 1.4
01:30 - 02:00 6.6 7.7 6.2 98 0.0 0.4 223 2.9
02:00 - 02:30 7.0 7.8 6.3 96 0.0 0.0 191 1.4
02:30 - 03:00 6.0 6.2 5.6 96 0.0 0.4 106 2.2
03:00 - 03:30 5.4 5.6 5.2 97 0.0 0.4 89 1.8
03:30 - 04:00 5.1 5.3 4.9 97 0.0 0.4 90 2.2
04:00 - 04:30 4.7 4.9 4.4 98 0.0 0.4 92 1.8
04:30 - 05:00 4.7 5.1 4.4 98 0.0 0.4 94 2.2
05:00 - 05:30 5.0 5.3 4.5 98 0.0 1.1 89 2.9
05:30 - 06:00 4.8 5.1 4.5 98 0.0 0.4 119 4.3
06:00 - 06:30 5.3 5.5 5.0 98 0.1 1.4 87 4.3
06:30 - 07:00 5.7 6.6 5.3 98 0.0 0.7 77 3.2
07:00 - 07:30 7.6 8.6 6.7 97 0.0 1.1 78 4.3
07:30 - 08:00 9.6 10.6 8.6 92 0.0 2.5 87 6.1
08:00 - 08:30 11.5 12.3 10.6 84 0.0 1.8 88 5.0
08:30 - 09:00 12.1 12.5 11.7 77 0.0 2.9 286 8.6
09:00 - 09:30 12.8 13.4 12.4 75 0.0 3.2 273 8.6
09:30 - 10:00 13.4 14.0 12.7 72 0.0 2.5 261 7.9
10:00 - 10:30 14.3 15.0 13.9 70 0.0 4.0 259 11.5
10:30 - 11:00 14.5 15.0 14.1 69 0.0 5.4 276 13.0
11:00 - 11:30 15.3 15.8 14.8 67 0.0 3.6 283 11.2
11:30 - 12:00 15.8 16.0 15.4 66 0.0 4.7 277 12.6
12:00 - 12:30 16.1 16.6 15.5 65 0.0 5.4 281 12.2
12:30 - 13:00 16.5 16.8 16.2 64 0.0 7.9 249 14.4
13:00 - 13:30 17.1 17.4 16.8 63 0.0 5.8 273 14.8
13:30 - 14:00 17.5 17.8 17.1 61 0.0 6.5 247 13.3
14:00 - 14:30 17.7 18.0 17.5 62 0.0 5.4 261 14.0
14:30 - 15:00 17.7 17.8 17.5 63 0.0 5.4 264 13.0
15:00 - 15:30 17.7 17.8 17.4 63 0.0 5.4 249 11.5
15:30 - 16:00 17.5 17.7 17.3 64 0.0 5.0 257 9.0
16:00 - 16:30 17.0 17.4 16.6 69 0.0 3.2 261 8.3
16:30 - 17:00 15.6 16.6 13.6 76 0.0 0.7 236 2.9
17:00 - 17:30 12.6 13.5 11.7 90 0.0 0.4 184 2.2
17:30 - 18:00 11.1 11.7 10.7 93 0.0 0.0 159 0.7
18:00 - 18:30 10.4 10.8 10.1 95 0.0 0.0 119 1.8
18:30 - 19:00 10.2 10.4 10.0 95 0.0 0.7 115 2.2
19:00 - 19:30 9.3 10.0 8.9 95 0.0 0.0 110 1.1
19:30 - 20:00 8.3 9.1 7.9 96 0.0 0.4 61 2.9
20:00 - 20:30 8.3 8.5 8.1 97 0.0 0.7 75 3.2

Les dades en taronja només han passat un control de qualitat automàtic. Resta pendent la seva validació definitiva.